sensor_id;sensor_type;location;lat;lon;timestamp;P1;durP1;ratioP1;P2;durP2;ratioP2
55346;SDS011;41218;55.700;38.270;2023-04-24T00:02:43;24.30;;;10.60;;
55346;SDS011;41218;55.700;38.270;2023-04-24T00:07:47;20.27;;;9.40;;
55346;SDS011;41218;55.700;38.270;2023-04-24T00:12:47;16.13;;;8.60;;
55346;SDS011;41218;55.700;38.270;2023-04-24T00:17:48;18.13;;;8.97;;
55346;SDS011;41218;55.700;38.270;2023-04-24T00:22:48;17.13;;;8.90;;
55346;SDS011;41218;55.700;38.270;2023-04-24T00:27:49;17.53;;;8.93;;
55346;SDS011;41218;55.700;38.270;2023-04-24T00:32:50;19.00;;;9.30;;
55346;SDS011;41218;55.700;38.270;2023-04-24T00:37:50;18.90;;;9.63;;
55346;SDS011;41218;55.700;38.270;2023-04-24T00:42:51;18.57;;;9.90;;
55346;SDS011;41218;55.700;38.270;2023-04-24T00:47:52;18.13;;;9.67;;
55346;SDS011;41218;55.700;38.270;2023-04-24T00:52:53;17.35;;;9.35;;
55346;SDS011;41218;55.700;38.270;2023-04-24T00:57:53;20.20;;;9.13;;
55346;SDS011;41218;55.700;38.270;2023-04-24T01:02:54;19.25;;;9.63;;
55346;SDS011;41218;55.700;38.270;2023-04-24T01:07:55;22.95;;;10.25;;
55346;SDS011;41218;55.700;38.270;2023-04-24T01:12:56;21.33;;;10.82;;
55346;SDS011;41218;55.700;38.270;2023-04-24T01:17:58;24.58;;;11.18;;
55346;SDS011;41218;55.700;38.270;2023-04-24T01:22:58;19.50;;;9.37;;
55346;SDS011;41218;55.700;38.270;2023-04-24T01:28:00;18.65;;;9.32;;
55346;SDS011;41218;55.700;38.270;2023-04-24T01:33:01;21.92;;;10.30;;
55346;SDS011;41218;55.700;38.270;2023-04-24T01:38:02;17.02;;;8.77;;
55346;SDS011;41218;55.700;38.270;2023-04-24T01:43:04;19.40;;;9.35;;
55346;SDS011;41218;55.700;38.270;2023-04-24T01:48:05;20.57;;;9.07;;
55346;SDS011;41218;55.700;38.270;2023-04-24T01:53:05;20.43;;;9.27;;
55346;SDS011;41218;55.700;38.270;2023-04-24T01:58:06;17.20;;;8.73;;
55346;SDS011;41218;55.700;38.270;2023-04-24T02:03:06;16.93;;;8.63;;
55346;SDS011;41218;55.700;38.270;2023-04-24T02:08:07;19.97;;;9.37;;
55346;SDS011;41218;55.700;38.270;2023-04-24T02:13:08;19.63;;;8.93;;
55346;SDS011;41218;55.700;38.270;2023-04-24T02:18:08;18.60;;;8.90;;
55346;SDS011;41218;55.700;38.270;2023-04-24T02:23:09;19.43;;;9.63;;
55346;SDS011;41218;55.700;38.270;2023-04-24T02:28:09;20.90;;;9.47;;
55346;SDS011;41218;55.700;38.270;2023-04-24T02:33:10;23.80;;;9.27;;
55346;SDS011;41218;55.700;38.270;2023-04-24T02:38:12;20.15;;;9.18;;
55346;SDS011;41218;55.700;38.270;2023-04-24T02:43:12;19.73;;;9.63;;
55346;SDS011;41218;55.700;38.270;2023-04-24T02:48:13;24.63;;;10.30;;
55346;SDS011;41218;55.700;38.270;2023-04-24T02:53:13;18.50;;;10.33;;
55346;SDS011;41218;55.700;38.270;2023-04-24T02:58:14;23.83;;;10.90;;
55346;SDS011;41218;55.700;38.270;2023-04-24T03:03:14;19.87;;;10.10;;
55346;SDS011;41218;55.700;38.270;2023-04-24T03:08:15;21.97;;;10.27;;
55346;SDS011;41218;55.700;38.270;2023-04-24T03:13:16;21.40;;;10.77;;
55346;SDS011;41218;55.700;38.270;2023-04-24T03:18:16;19.25;;;9.70;;
55346;SDS011;41218;55.700;38.270;2023-04-24T03:23:17;23.27;;;10.90;;
55346;SDS011;41218;55.700;38.270;2023-04-24T03:28:17;19.03;;;10.17;;
55346;SDS011;41218;55.700;38.270;2023-04-24T03:33:18;20.93;;;10.27;;
55346;SDS011;41218;55.700;38.270;2023-04-24T03:38:18;19.77;;;9.97;;
55346;SDS011;41218;55.700;38.270;2023-04-24T03:43:19;24.90;;;10.13;;
55346;SDS011;41218;55.700;38.270;2023-04-24T03:48:19;19.17;;;10.43;;
55346;SDS011;41218;55.700;38.270;2023-04-24T03:53:20;20.97;;;9.97;;
55346;SDS011;41218;55.700;38.270;2023-04-24T03:58:20;23.73;;;10.50;;
55346;SDS011;41218;55.700;38.270;2023-04-24T04:03:21;21.33;;;10.47;;
55346;SDS011;41218;55.700;38.270;2023-04-24T04:08:22;20.83;;;10.10;;
55346;SDS011;41218;55.700;38.270;2023-04-24T04:13:22;22.37;;;10.43;;
55346;SDS011;41218;55.700;38.270;2023-04-24T04:18:23;23.30;;;10.83;;
55346;SDS011;41218;55.700;38.270;2023-04-24T04:23:23;25.80;;;10.83;;
55346;SDS011;41218;55.700;38.270;2023-04-24T04:28:24;22.85;;;10.45;;
55346;SDS011;41218;55.700;38.270;2023-04-24T04:33:25;23.43;;;10.90;;
55346;SDS011;41218;55.700;38.270;2023-04-24T04:38:26;21.50;;;11.55;;
55346;SDS011;41218;55.700;38.270;2023-04-24T04:43:29;23.27;;;11.90;;
55346;SDS011;41218;55.700;38.270;2023-04-24T04:48:31;22.60;;;12.55;;
55346;SDS011;41218;55.700;38.270;2023-04-24T04:53:31;23.07;;;11.43;;
55346;SDS011;41218;55.700;38.270;2023-04-24T04:58:32;22.37;;;11.53;;
55346;SDS011;41218;55.700;38.270;2023-04-24T05:03:32;22.53;;;11.87;;
55346;SDS011;41218;55.700;38.270;2023-04-24T05:08:33;24.47;;;12.33;;
55346;SDS011;41218;55.700;38.270;2023-04-24T05:13:33;20.23;;;10.20;;
55346;SDS011;41218;55.700;38.270;2023-04-24T05:18:34;19.93;;;10.60;;
55346;SDS011;41218;55.700;38.270;2023-04-24T05:23:34;19.10;;;10.63;;
55346;SDS011;41218;55.700;38.270;2023-04-24T05:28:35;21.30;;;11.00;;
55346;SDS011;41218;55.700;38.270;2023-04-24T05:33:36;19.40;;;10.18;;
55346;SDS011;41218;55.700;38.270;2023-04-24T05:38:37;19.38;;;9.65;;
55346;SDS011;41218;55.700;38.270;2023-04-24T05:43:38;20.80;;;10.33;;
55346;SDS011;41218;55.700;38.270;2023-04-24T05:48:38;19.03;;;9.77;;
55346;SDS011;41218;55.700;38.270;2023-04-24T05:53:39;20.10;;;9.77;;
55346;SDS011;41218;55.700;38.270;2023-04-24T05:58:40;20.15;;;9.00;;
55346;SDS011;41218;55.700;38.270;2023-04-24T06:03:41;16.23;;;9.25;;
55346;SDS011;41218;55.700;38.270;2023-04-24T06:08:42;16.77;;;9.40;;
55346;SDS011;41218;55.700;38.270;2023-04-24T06:13:44;20.60;;;10.13;;
55346;SDS011;41218;55.700;38.270;2023-04-24T06:18:44;20.40;;;9.37;;
55346;SDS011;41218;55.700;38.270;2023-04-24T06:23:47;21.83;;;9.60;;
55346;SDS011;41218;55.700;38.270;2023-04-24T06:28:47;19.50;;;9.57;;
55346;SDS011;41218;55.700;38.270;2023-04-24T06:33:48;15.65;;;9.13;;
55346;SDS011;41218;55.700;38.270;2023-04-24T06:38:49;17.92;;;9.85;;
55346;SDS011;41218;55.700;38.270;2023-04-24T06:43:50;15.33;;;8.97;;
55346;SDS011;41218;55.700;38.270;2023-04-24T06:48:50;13.33;;;7.43;;
55346;SDS011;41218;55.700;38.270;2023-04-24T06:53:51;15.63;;;7.90;;
55346;SDS011;41218;55.700;38.270;2023-04-24T06:58:53;13.45;;;7.22;;
55346;SDS011;41218;55.700;38.270;2023-04-24T07:03:53;11.20;;;6.80;;
55346;SDS011;41218;55.700;38.270;2023-04-24T07:08:54;10.53;;;6.63;;
55346;SDS011;41218;55.700;38.270;2023-04-24T07:13:55;17.30;;;7.15;;
55346;SDS011;41218;55.700;38.270;2023-04-24T07:18:56;15.87;;;6.93;;
55346;SDS011;41218;55.700;38.270;2023-04-24T07:23:59;11.67;;;6.57;;
55346;SDS011;41218;55.700;38.270;2023-04-24T07:29:00;9.70;;;6.38;;
55346;SDS011;41218;55.700;38.270;2023-04-24T07:34:01;9.50;;;5.82;;
55346;SDS011;41218;55.700;38.270;2023-04-24T07:39:01;12.07;;;6.60;;
55346;SDS011;41218;55.700;38.270;2023-04-24T07:44:02;9.82;;;6.15;;
55346;SDS011;41218;55.700;38.270;2023-04-24T07:54:04;8.55;;;4.85;;
55346;SDS011;41218;55.700;38.270;2023-04-24T07:59:08;8.38;;;5.32;;
55346;SDS011;41218;55.700;38.270;2023-04-24T08:04:10;7.80;;;4.72;;
55346;SDS011;41218;55.700;38.270;2023-04-24T08:14:11;6.67;;;4.40;;
55346;SDS011;41218;55.700;38.270;2023-04-24T08:19:13;6.93;;;4.88;;
55346;SDS011;41218;55.700;38.270;2023-04-24T08:29:14;6.60;;;4.40;;
55346;SDS011;41218;55.700;38.270;2023-04-24T08:39:15;6.47;;;4.93;;
55346;SDS011;41218;55.700;38.270;2023-04-24T08:49:17;10.93;;;4.37;;
55346;SDS011;41218;55.700;38.270;2023-04-24T08:54:18;7.47;;;4.57;;
55346;SDS011;41218;55.700;38.270;2023-04-24T08:59:19;5.70;;;4.38;;
55346;SDS011;41218;55.700;38.270;2023-04-24T09:04:22;10.70;;;5.93;;
55346;SDS011;41218;55.700;38.270;2023-04-24T09:09:25;7.20;;;4.80;;
55346;SDS011;41218;55.700;38.270;2023-04-24T09:14:26;6.38;;;4.40;;
55346;SDS011;41218;55.700;38.270;2023-04-24T09:19:28;5.75;;;4.13;;
55346;SDS011;41218;55.700;38.270;2023-04-24T09:24:29;5.97;;;4.70;;
55346;SDS011;41218;55.700;38.270;2023-04-24T09:29:29;6.38;;;4.65;;
55346;SDS011;41218;55.700;38.270;2023-04-24T09:34:31;6.82;;;4.65;;
55346;SDS011;41218;55.700;38.270;2023-04-24T09:39:32;6.82;;;4.45;;
55346;SDS011;41218;55.700;38.270;2023-04-24T09:44:34;7.03;;;4.55;;
55346;SDS011;41218;55.700;38.270;2023-04-24T09:49:34;7.13;;;4.60;;
55346;SDS011;41218;55.700;38.270;2023-04-24T09:54:37;6.90;;;4.55;;
55346;SDS011;41218;55.700;38.270;2023-04-24T09:59:41;5.82;;;4.40;;
55346;SDS011;41218;55.700;38.270;2023-04-24T10:04:53;7.78;;;4.88;;
55346;SDS011;41218;55.700;38.270;2023-04-24T10:09:56;7.20;;;4.82;;
55346;SDS011;41218;55.700;38.270;2023-04-24T10:14:56;7.30;;;4.45;;
55346;SDS011;41218;55.700;38.270;2023-04-24T10:19:58;5.05;;;3.67;;
55346;SDS011;41218;55.700;38.270;2023-04-24T10:25:03;5.07;;;3.90;;
55346;SDS011;41218;55.700;38.270;2023-04-24T10:30:05;5.97;;;4.00;;
55346;SDS011;41218;55.700;38.270;2023-04-24T10:35:08;6.95;;;4.53;;
55346;SDS011;41218;55.700;38.270;2023-04-24T10:40:09;6.05;;;4.43;;
55346;SDS011;41218;55.700;38.270;2023-04-24T10:45:17;6.55;;;4.70;;
55346;SDS011;41218;55.700;38.270;2023-04-24T10:50:21;6.15;;;4.60;;
55346;SDS011;41218;55.700;38.270;2023-04-24T11:00:43;6.43;;;4.28;;
55346;SDS011;41218;55.700;38.270;2023-04-24T11:05:52;8.05;;;4.45;;
55346;SDS011;41218;55.700;38.270;2023-04-24T11:11:03;6.43;;;4.20;;
55346;SDS011;41218;55.700;38.270;2023-04-24T11:16:11;6.20;;;4.03;;
55346;SDS011;41218;55.700;38.270;2023-04-24T11:21:16;5.20;;;3.65;;
55346;SDS011;41218;55.700;38.270;2023-04-24T11:26:18;6.28;;;4.60;;
55346;SDS011;41218;55.700;38.270;2023-04-24T11:31:35;5.57;;;4.05;;
55346;SDS011;41218;55.700;38.270;2023-04-24T11:36:49;6.68;;;3.67;;
55346;SDS011;41218;55.700;38.270;2023-04-24T11:41:50;4.93;;;3.60;;
55346;SDS011;41218;55.700;38.270;2023-04-24T11:46:51;6.18;;;3.90;;
55346;SDS011;41218;55.700;38.270;2023-04-24T11:51:55;4.57;;;3.60;;
55346;SDS011;41218;55.700;38.270;2023-04-24T11:56:55;5.53;;;4.30;;
55346;SDS011;41218;55.700;38.270;2023-04-24T12:01:57;5.88;;;4.20;;
55346;SDS011;41218;55.700;38.270;2023-04-24T12:07:03;4.70;;;3.92;;
55346;SDS011;41218;55.700;38.270;2023-04-24T12:12:08;5.00;;;3.70;;
55346;SDS011;41218;55.700;38.270;2023-04-24T12:17:09;7.82;;;3.70;;
55346;SDS011;41218;55.700;38.270;2023-04-24T12:22:10;5.22;;;4.03;;
55346;SDS011;41218;55.700;38.270;2023-04-24T12:27:18;5.85;;;3.85;;
55346;SDS011;41218;55.700;38.270;2023-04-24T12:32:20;5.93;;;4.00;;
55346;SDS011;41218;55.700;38.270;2023-04-24T12:37:20;4.40;;;3.80;;
55346;SDS011;41218;55.700;38.270;2023-04-24T12:42:27;6.20;;;4.20;;
55346;SDS011;41218;55.700;38.270;2023-04-24T12:47:29;5.85;;;4.38;;
55346;SDS011;41218;55.700;38.270;2023-04-24T12:52:31;6.70;;;3.63;;
55346;SDS011;41218;55.700;38.270;2023-04-24T12:57:31;4.65;;;3.72;;
55346;SDS011;41218;55.700;38.270;2023-04-24T13:02:32;5.93;;;3.85;;
55346;SDS011;41218;55.700;38.270;2023-04-24T13:07:33;6.63;;;4.53;;
55346;SDS011;41218;55.700;38.270;2023-04-24T13:12:34;9.00;;;4.50;;
55346;SDS011;41218;55.700;38.270;2023-04-24T13:17:35;4.97;;;4.05;;
55346;SDS011;41218;55.700;38.270;2023-04-24T13:22:35;7.15;;;4.13;;
55346;SDS011;41218;55.700;38.270;2023-04-24T13:27:39;5.32;;;3.70;;
55346;SDS011;41218;55.700;38.270;2023-04-24T13:32:39;6.15;;;4.40;;
55346;SDS011;41218;55.700;38.270;2023-04-24T13:37:40;4.90;;;3.88;;
55346;SDS011;41218;55.700;38.270;2023-04-24T13:42:40;4.60;;;3.80;;
55346;SDS011;41218;55.700;38.270;2023-04-24T13:47:41;5.63;;;4.50;;
55346;SDS011;41218;55.700;38.270;2023-04-24T13:52:41;5.75;;;3.80;;
55346;SDS011;41218;55.700;38.270;2023-04-24T13:57:42;7.50;;;4.05;;
55346;SDS011;41218;55.700;38.270;2023-04-24T14:02:43;6.32;;;3.58;;
55346;SDS011;41218;55.700;38.270;2023-04-24T14:07:43;4.55;;;3.70;;
55346;SDS011;41218;55.700;38.270;2023-04-24T14:12:44;4.70;;;3.67;;
55346;SDS011;41218;55.700;38.270;2023-04-24T14:17:44;5.05;;;3.90;;
55346;SDS011;41218;55.700;38.270;2023-04-24T14:22:45;7.03;;;3.63;;
55346;SDS011;41218;55.700;38.270;2023-04-24T14:27:45;4.85;;;3.63;;
55346;SDS011;41218;55.700;38.270;2023-04-24T14:32:47;5.97;;;3.90;;
55346;SDS011;41218;55.700;38.270;2023-04-24T14:37:48;5.57;;;3.88;;
55346;SDS011;41218;55.700;38.270;2023-04-24T14:42:49;5.35;;;3.75;;
55346;SDS011;41218;55.700;38.270;2023-04-24T14:47:50;5.70;;;3.60;;
55346;SDS011;41218;55.700;38.270;2023-04-24T14:52:51;6.15;;;3.83;;
55346;SDS011;41218;55.700;38.270;2023-04-24T14:57:52;5.90;;;3.80;;
55346;SDS011;41218;55.700;38.270;2023-04-24T15:02:53;5.05;;;3.95;;
55346;SDS011;41218;55.700;38.270;2023-04-24T15:07:55;6.32;;;3.85;;
55346;SDS011;41218;55.700;38.270;2023-04-24T15:12:55;5.93;;;3.80;;
55346;SDS011;41218;55.700;38.270;2023-04-24T15:17:56;7.07;;;4.40;;
55346;SDS011;41218;55.700;38.270;2023-04-24T15:22:56;4.60;;;4.00;;
55346;SDS011;41218;55.700;38.270;2023-04-24T15:27:59;4.95;;;4.07;;
55346;SDS011;41218;55.700;38.270;2023-04-24T15:33:00;6.10;;;4.40;;
55346;SDS011;41218;55.700;38.270;2023-04-24T15:38:01;6.63;;;4.30;;
55346;SDS011;41218;55.700;38.270;2023-04-24T15:43:03;5.88;;;4.30;;
55346;SDS011;41218;55.700;38.270;2023-04-24T15:48:04;6.10;;;4.55;;
55346;SDS011;41218;55.700;38.270;2023-04-24T15:53:05;5.10;;;3.95;;
55346;SDS011;41218;55.700;38.270;2023-04-24T15:58:05;7.75;;;4.82;;
55346;SDS011;41218;55.700;38.270;2023-04-24T16:03:06;5.97;;;4.50;;
55346;SDS011;41218;55.700;38.270;2023-04-24T16:08:06;6.93;;;4.38;;
55346;SDS011;41218;55.700;38.270;2023-04-24T16:13:07;6.78;;;4.88;;
55346;SDS011;41218;55.700;38.270;2023-04-24T16:18:08;5.38;;;4.50;;
55346;SDS011;41218;55.700;38.270;2023-04-24T16:28:09;6.47;;;4.27;;
55346;SDS011;41218;55.700;38.270;2023-04-24T16:38:10;5.50;;;4.18;;
55346;SDS011;41218;55.700;38.270;2023-04-24T16:48:11;8.07;;;4.47;;
55346;SDS011;41218;55.700;38.270;2023-04-24T16:53:12;6.13;;;4.63;;
55346;SDS011;41218;55.700;38.270;2023-04-24T17:03:13;9.17;;;4.80;;
55346;SDS011;41218;55.700;38.270;2023-04-24T17:13:14;13.40;;;5.03;;
55346;SDS011;41218;55.700;38.270;2023-04-24T17:23:16;7.25;;;4.70;;
55346;SDS011;41218;55.700;38.270;2023-04-24T17:28:26;7.53;;;5.10;;
55346;SDS011;41218;55.700;38.270;2023-04-24T17:33:29;7.85;;;5.32;;
55346;SDS011;41218;55.700;38.270;2023-04-24T17:38:30;6.88;;;5.03;;
55346;SDS011;41218;55.700;38.270;2023-04-24T17:43:30;13.70;;;4.93;;
55346;SDS011;41218;55.700;38.270;2023-04-24T17:48:31;7.32;;;4.88;;
55346;SDS011;41218;55.700;38.270;2023-04-24T17:53:31;8.55;;;5.57;;
55346;SDS011;41218;55.700;38.270;2023-04-24T17:58:32;8.20;;;5.53;;
55346;SDS011;41218;55.700;38.270;2023-04-24T18:03:34;8.93;;;5.47;;
55346;SDS011;41218;55.700;38.270;2023-04-24T18:08:34;10.32;;;5.78;;
55346;SDS011;41218;55.700;38.270;2023-04-24T18:13:35;10.93;;;5.78;;
55346;SDS011;41218;55.700;38.270;2023-04-24T18:18:37;7.65;;;5.30;;
55346;SDS011;41218;55.700;38.270;2023-04-24T18:23:38;10.30;;;5.63;;
55346;SDS011;41218;55.700;38.270;2023-04-24T18:28:38;8.27;;;5.80;;
55346;SDS011;41218;55.700;38.270;2023-04-24T18:33:39;11.27;;;5.83;;
55346;SDS011;41218;55.700;38.270;2023-04-24T18:38:39;17.08;;;6.15;;
55346;SDS011;41218;55.700;38.270;2023-04-24T18:43:40;9.35;;;5.40;;
55346;SDS011;41218;55.700;38.270;2023-04-24T18:48:40;11.10;;;6.57;;
55346;SDS011;41218;55.700;38.270;2023-04-24T18:53:41;12.77;;;6.00;;
55346;SDS011;41218;55.700;38.270;2023-04-24T18:58:41;9.93;;;6.50;;
55346;SDS011;41218;55.700;38.270;2023-04-24T19:03:45;11.13;;;5.90;;
55346;SDS011;41218;55.700;38.270;2023-04-24T19:08:45;12.93;;;6.53;;
55346;SDS011;41218;55.700;38.270;2023-04-24T19:13:46;10.38;;;6.28;;
55346;SDS011;41218;55.700;38.270;2023-04-24T19:18:46;9.47;;;6.60;;
55346;SDS011;41218;55.700;38.270;2023-04-24T19:23:47;17.47;;;7.47;;
55346;SDS011;41218;55.700;38.270;2023-04-24T19:28:49;14.07;;;7.15;;
55346;SDS011;41218;55.700;38.270;2023-04-24T19:33:50;17.87;;;8.50;;
55346;SDS011;41218;55.700;38.270;2023-04-24T19:38:50;17.57;;;7.73;;
55346;SDS011;41218;55.700;38.270;2023-04-24T19:43:51;12.68;;;8.05;;
55346;SDS011;41218;55.700;38.270;2023-04-24T19:48:51;15.03;;;7.67;;
55346;SDS011;41218;55.700;38.270;2023-04-24T19:53:52;13.35;;;7.72;;
55346;SDS011;41218;55.700;38.270;2023-04-24T19:58:53;12.23;;;7.27;;
55346;SDS011;41218;55.700;38.270;2023-04-24T20:03:53;14.30;;;7.80;;
55346;SDS011;41218;55.700;38.270;2023-04-24T20:08:54;13.03;;;8.07;;
55346;SDS011;41218;55.700;38.270;2023-04-24T20:13:54;16.90;;;8.00;;
55346;SDS011;41218;55.700;38.270;2023-04-24T20:18:55;14.60;;;8.25;;
55346;SDS011;41218;55.700;38.270;2023-04-24T20:23:56;13.70;;;8.55;;
55346;SDS011;41218;55.700;38.270;2023-04-24T20:28:56;15.30;;;8.10;;
55346;SDS011;41218;55.700;38.270;2023-04-24T20:33:57;15.53;;;7.77;;
55346;SDS011;41218;55.700;38.270;2023-04-24T20:38:58;15.47;;;8.37;;
55346;SDS011;41218;55.700;38.270;2023-04-24T20:43:59;14.68;;;7.93;;
55346;SDS011;41218;55.700;38.270;2023-04-24T20:49:00;16.90;;;8.43;;
55346;SDS011;41218;55.700;38.270;2023-04-24T20:54:02;14.82;;;8.32;;
55346;SDS011;41218;55.700;38.270;2023-04-24T20:59:03;16.73;;;8.50;;
55346;SDS011;41218;55.700;38.270;2023-04-24T21:04:03;15.17;;;8.17;;
55346;SDS011;41218;55.700;38.270;2023-04-24T21:09:04;14.20;;;7.78;;
55346;SDS011;41218;55.700;38.270;2023-04-24T21:14:05;13.80;;;8.17;;
55346;SDS011;41218;55.700;38.270;2023-04-24T21:19:05;14.53;;;8.20;;
55346;SDS011;41218;55.700;38.270;2023-04-24T21:24:06;16.00;;;7.93;;
55346;SDS011;41218;55.700;38.270;2023-04-24T21:29:06;18.93;;;8.17;;
55346;SDS011;41218;55.700;38.270;2023-04-24T21:34:07;13.67;;;8.27;;
55346;SDS011;41218;55.700;38.270;2023-04-24T21:39:08;15.50;;;8.17;;
55346;SDS011;41218;55.700;38.270;2023-04-24T21:44:08;13.50;;;8.23;;
55346;SDS011;41218;55.700;38.270;2023-04-24T21:49:08;14.67;;;8.40;;
55346;SDS011;41218;55.700;38.270;2023-04-24T21:54:09;15.67;;;8.27;;
55346;SDS011;41218;55.700;38.270;2023-04-24T21:59:10;13.77;;;8.30;;
55346;SDS011;41218;55.700;38.270;2023-04-24T22:04:10;14.90;;;7.82;;
55346;SDS011;41218;55.700;38.270;2023-04-24T22:09:11;16.07;;;8.57;;
55346;SDS011;41218;55.700;38.270;2023-04-24T22:14:12;16.30;;;7.97;;
55346;SDS011;41218;55.700;38.270;2023-04-24T22:19:13;13.30;;;7.80;;
55346;SDS011;41218;55.700;38.270;2023-04-24T22:24:13;12.93;;;8.15;;
55346;SDS011;41218;55.700;38.270;2023-04-24T22:29:14;15.17;;;7.90;;
55346;SDS011;41218;55.700;38.270;2023-04-24T22:34:15;15.07;;;8.00;;
55346;SDS011;41218;55.700;38.270;2023-04-24T22:39:16;17.10;;;8.00;;
55346;SDS011;41218;55.700;38.270;2023-04-24T22:44:16;15.07;;;8.53;;
55346;SDS011;41218;55.700;38.270;2023-04-24T22:49:17;13.93;;;7.60;;
55346;SDS011;41218;55.700;38.270;2023-04-24T22:59:19;18.03;;;8.20;;
55346;SDS011;41218;55.700;38.270;2023-04-24T23:04:19;13.43;;;7.37;;
55346;SDS011;41218;55.700;38.270;2023-04-24T23:09:20;16.33;;;8.27;;
55346;SDS011;41218;55.700;38.270;2023-04-24T23:14:21;13.10;;;7.03;;
55346;SDS011;41218;55.700;38.270;2023-04-24T23:19:23;12.60;;;7.88;;
55346;SDS011;41218;55.700;38.270;2023-04-24T23:24:24;14.17;;;7.70;;
55346;SDS011;41218;55.700;38.270;2023-04-24T23:29:25;13.15;;;7.38;;
55346;SDS011;41218;55.700;38.270;2023-04-24T23:34:26;11.20;;;7.50;;
55346;SDS011;41218;55.700;38.270;2023-04-24T23:39:26;13.67;;;7.40;;
55346;SDS011;41218;55.700;38.270;2023-04-24T23:44:27;12.33;;;7.93;;
55346;SDS011;41218;55.700;38.270;2023-04-24T23:49:29;12.60;;;7.53;;
55346;SDS011;41218;55.700;38.270;2023-04-24T23:54:30;17.47;;;7.83;;
55346;SDS011;41218;55.700;38.270;2023-04-24T23:59:30;13.13;;;7.20;;
